KMCK

Mc Cook Ben Nelson Regional Airport

Mc Cook, Nebraska, USA
METAR KMCK 232153Z AUTO 11009KT 10SM CLR 03/M04 A3012 RMK AO2 SLP227 T00281039
Observed Flight Rules
Feb-23 @ 21:53 UTC (45 minutes ago) Visual Flight Rules
Wind Visibility Clouds
110° at 9 knots 10 miles
  • Clear skies
Temperatures Readings
Current 3°C / 37°F
Dewpoint -4°C / 25°F
Humidity 60%
Altimeter 30.12" Hg
Pressure 1022.7 hPa
Elevation 782
METAR KMCK 232153Z AUTO 11009KT 10SM CLR 03/M04 A3012 RMK AO2 SLP227 T00281039
Observed Flight Rules
Feb-23 @ 21:53 UTC
(45 minutes ago)
VFR
Wind Visibility
110° at 9 knots 10 miles
Clouds
  • Clear skies
Temperature Dewpoint
3°C / 37°F -4°C / 25°F
Humidity Altimeter Pressure
60% 30.12" Hg 1022.7 hPa